createdAt,value
2022-09-09T00:02:19.171Z,99.90
2022-09-09T00:04:53.940Z,99.90
2022-09-09T00:07:27.361Z,99.90
2022-09-09T00:10:19.156Z,99.90
2022-09-09T00:13:20.299Z,99.90
2022-09-09T00:15:58.844Z,99.90
2022-09-09T00:18:58.584Z,99.90
2022-09-09T00:21:39.881Z,99.90
2022-09-09T00:24:36.213Z,99.90
2022-09-09T00:27:16.980Z,99.90
2022-09-09T00:29:54.978Z,99.90
2022-09-09T00:32:22.278Z,99.90
2022-09-09T00:34:51.005Z,99.90
2022-09-09T00:37:19.498Z,99.90
2022-09-09T00:39:50.632Z,99.90
2022-09-09T00:42:19.744Z,99.90
2022-09-09T00:44:52.631Z,99.90
2022-09-09T00:47:31.998Z,99.90
2022-09-09T00:50:30.694Z,99.90
2022-09-09T00:53:19.453Z,99.90
2022-09-09T00:55:56.434Z,99.90
2022-09-09T00:58:23.150Z,99.90
2022-09-09T01:01:07.720Z,99.90
2022-09-09T01:03:56.867Z,99.90
2022-09-09T01:06:39.085Z,99.90
2022-09-09T01:09:22.381Z,99.90
2022-09-09T01:12:13.009Z,99.90
2022-09-09T01:14:43.286Z,99.90
2022-09-09T01:17:18.557Z,99.90
2022-09-09T01:19:45.224Z,99.90
2022-09-09T01:22:27.406Z,99.90
2022-09-09T01:25:15.962Z,99.90
2022-09-09T01:27:44.832Z,99.90
2022-09-09T01:30:17.207Z,99.90
2022-09-09T01:32:50.811Z,99.90
2022-09-09T01:35:32.834Z,99.90
2022-09-09T01:37:59.778Z,99.90
2022-09-09T01:40:27.426Z,99.90
2022-09-09T01:42:55.480Z,99.90
2022-09-09T01:45:23.050Z,99.90
2022-09-09T01:47:50.505Z,99.90
2022-09-09T01:50:18.059Z,99.90
2022-09-09T01:52:49.736Z,99.90
2022-09-09T01:55:16.944Z,99.90
2022-09-09T01:58:02.268Z,99.90
2022-09-09T02:00:32.649Z,99.90
2022-09-09T02:03:17.070Z,99.90
2022-09-09T02:06:02.966Z,99.90
2022-09-09T02:08:48.489Z,99.90
2022-09-09T02:11:20.382Z,99.90
2022-09-09T02:13:49.647Z,99.90
2022-09-09T02:16:27.643Z,99.90
2022-09-09T02:19:03.861Z,99.90
2022-09-09T02:21:32.413Z,99.90
2022-09-09T02:24:01.339Z,99.90
2022-09-09T02:26:28.924Z,99.90
2022-09-09T02:28:58.608Z,99.90
2022-09-09T02:31:26.833Z,99.90
2022-09-09T02:33:58.326Z,99.90
2022-09-09T02:36:28.174Z,99.90
2022-09-09T02:38:55.612Z,99.90
2022-09-09T02:41:25.654Z,99.90
2022-09-09T02:43:52.479Z,99.90
2022-09-09T02:46:31.054Z,99.90
2022-09-09T02:49:11.346Z,99.90
2022-09-09T02:51:55.462Z,99.90
2022-09-09T02:54:32.354Z,99.90
2022-09-09T02:57:06.965Z,99.90
2022-09-09T02:59:34.569Z,99.90
2022-09-09T03:02:02.211Z,99.90
2022-09-09T03:04:28.988Z,99.90
2022-09-09T03:06:55.689Z,99.90
2022-09-09T03:09:22.483Z,99.90
2022-09-09T03:11:50.306Z,99.90
2022-09-09T03:14:17.702Z,99.90
2022-09-09T03:16:44.545Z,99.90
2022-09-09T03:19:11.304Z,99.90
2022-09-09T03:21:38.038Z,99.90
2022-09-09T03:24:04.945Z,99.90
2022-09-09T03:26:32.794Z,99.90
2022-09-09T03:29:01.419Z,99.90
2022-09-09T03:31:37.494Z,99.90
2022-09-09T03:34:04.247Z,99.90
2022-09-09T03:36:31.306Z,99.90
2022-09-09T03:38:58.961Z,99.90
2022-09-09T03:41:27.209Z,99.90
2022-09-09T03:43:54.733Z,99.90
2022-09-09T03:46:23.299Z,99.90
2022-09-09T03:48:50.409Z,99.90
2022-09-09T03:51:17.436Z,99.90
2022-09-09T03:53:44.308Z,99.90
2022-09-09T03:56:11.738Z,99.90
2022-09-09T03:58:38.963Z,99.90
2022-09-09T04:01:14.444Z,99.90
2022-09-09T04:03:41.946Z,99.90
2022-09-09T04:06:11.837Z,99.90
2022-09-09T04:08:39.621Z,99.90
2022-09-09T04:11:07.363Z,99.90
2022-09-09T04:13:35.168Z,99.90
2022-09-09T04:16:04.734Z,99.90
2022-09-09T04:18:31.747Z,99.90
2022-09-09T04:20:59.004Z,99.90
2022-09-09T04:23:28.293Z,99.90
2022-09-09T04:25:56.064Z,99.90
2022-09-09T04:28:24.795Z,99.90
2022-09-09T04:30:51.929Z,99.90
2022-09-09T04:33:18.880Z,99.90
2022-09-09T04:35:48.800Z,99.90
2022-09-09T04:38:16.397Z,99.90
2022-09-09T04:40:44.667Z,99.90
2022-09-09T04:43:14.504Z,99.90
2022-09-09T04:45:42.603Z,99.90
2022-09-09T04:48:10.734Z,99.90
2022-09-09T04:50:37.459Z,99.90
2022-09-09T04:53:05.916Z,99.90
2022-09-09T04:55:33.191Z,99.90
2022-09-09T04:58:07.924Z,99.90
2022-09-09T05:00:36.941Z,99.90
2022-09-09T05:03:06.034Z,99.90
2022-09-09T05:05:35.238Z,99.90
2022-09-09T05:08:06.578Z,99.90
2022-09-09T05:10:34.535Z,99.90
2022-09-09T05:13:01.326Z,99.90
2022-09-09T05:15:28.061Z,99.90
2022-09-09T05:18:01.804Z,99.90
2022-09-09T05:20:29.077Z,99.90
2022-09-09T05:22:57.416Z,99.90
2022-09-09T05:25:28.051Z,99.90
2022-09-09T05:27:54.896Z,99.90
2022-09-09T05:30:23.863Z,99.90
2022-09-09T05:32:51.155Z,99.90
2022-09-09T05:35:20.073Z,99.90
2022-09-09T05:37:47.089Z,99.90
2022-09-09T05:40:14.178Z,99.90
2022-09-09T05:42:41.682Z,99.90
2022-09-09T05:45:09.633Z,99.90
2022-09-09T05:47:38.241Z,99.90
2022-09-09T05:50:05.517Z,99.90
2022-09-09T05:52:32.913Z,99.90
2022-09-09T05:55:00.765Z,99.90
2022-09-09T05:57:27.927Z,99.90
2022-09-09T05:59:54.721Z,99.90
2022-09-09T06:02:21.664Z,99.90
2022-09-09T06:04:48.622Z,99.90
2022-09-09T06:07:15.624Z,99.90
2022-09-09T06:09:42.493Z,99.90
2022-09-09T06:12:09.970Z,99.90
2022-09-09T06:14:37.874Z,99.90
2022-09-09T06:17:04.838Z,99.90
2022-09-09T06:19:31.816Z,99.90
2022-09-09T06:21:59.534Z,99.90
2022-09-09T06:24:26.242Z,99.90
2022-09-09T06:26:53.011Z,99.90
2022-09-09T06:29:19.744Z,99.90
2022-09-09T06:31:46.572Z,99.90
2022-09-09T06:34:13.862Z,99.90
2022-09-09T06:36:40.945Z,99.90
2022-09-09T06:39:14.219Z,99.90
2022-09-09T06:41:42.031Z,99.90
2022-09-09T06:44:08.802Z,99.90
2022-09-09T06:46:36.718Z,99.90
2022-09-09T06:49:03.627Z,99.90
2022-09-09T06:51:33.098Z,99.90
2022-09-09T06:54:01.595Z,99.90
2022-09-09T06:56:33.542Z,99.90
2022-09-09T06:59:03.766Z,99.90
2022-09-09T07:01:35.952Z,99.90
2022-09-09T07:04:05.404Z,99.90
2022-09-09T07:06:35.541Z,99.90
2022-09-09T07:09:18.715Z,99.90
2022-09-09T07:11:48.515Z,99.90
2022-09-09T07:14:16.522Z,99.90
2022-09-09T07:16:44.979Z,99.90
2022-09-09T07:19:13.552Z,99.90
2022-09-09T07:21:41.384Z,99.90
2022-09-09T07:24:11.642Z,99.90
2022-09-09T07:26:40.144Z,99.90
2022-09-09T07:29:08.570Z,99.90
2022-09-09T07:31:38.354Z,99.90
2022-09-09T07:34:05.539Z,99.90
2022-09-09T07:36:34.831Z,99.90
2022-09-09T07:39:04.773Z,99.90
2022-09-09T07:41:37.621Z,99.90
2022-09-09T07:44:10.341Z,99.90
2022-09-09T07:46:38.142Z,99.90
2022-09-09T07:49:04.954Z,99.90
2022-09-09T07:51:37.728Z,99.90
2022-09-09T07:54:07.604Z,99.90
2022-09-09T07:56:35.250Z,99.90
2022-09-09T07:59:02.333Z,99.90
2022-09-09T08:01:32.148Z,99.90
2022-09-09T08:04:04.629Z,99.90
2022-09-09T08:06:38.685Z,99.90
2022-09-09T08:09:06.565Z,99.90
2022-09-09T08:11:39.136Z,99.90
2022-09-09T08:14:08.650Z,99.90
2022-09-09T08:16:38.656Z,99.90
2022-09-09T08:19:08.294Z,99.90
2022-09-09T08:21:37.700Z,99.90
2022-09-09T08:24:06.195Z,99.90
2022-09-09T08:26:39.456Z,99.90
2022-09-09T08:29:08.964Z,99.90
2022-09-09T08:31:38.506Z,99.90
2022-09-09T08:34:07.024Z,99.90
2022-09-09T08:36:45.550Z,99.90
2022-09-09T08:39:16.005Z,99.90
2022-09-09T08:41:59.135Z,99.90
2022-09-09T08:44:38.200Z,99.90
2022-09-09T08:47:33.869Z,99.90
2022-09-09T08:50:24.604Z,99.90
2022-09-09T08:53:09.417Z,99.90
2022-09-09T08:55:53.939Z,99.90
2022-09-09T08:58:23.082Z,99.90
2022-09-09T09:01:10.978Z,99.90
2022-09-09T09:04:14.905Z,99.90
2022-09-09T09:07:12.526Z,99.90
2022-09-09T09:09:59.782Z,99.90
2022-09-09T09:12:31.341Z,99.90
2022-09-09T09:15:00.085Z,99.50
2022-09-09T09:17:32.276Z,99.90
2022-09-09T09:20:00.630Z,99.90
2022-09-09T09:22:39.252Z,99.90
2022-09-09T09:25:09.334Z,99.90
2022-09-09T09:27:56.241Z,99.90
2022-09-09T09:30:29.846Z,99.70
2022-09-09T09:33:03.377Z,99.90
2022-09-09T09:35:30.265Z,99.90
2022-09-09T09:41:01.294Z,83.80
2022-09-09T09:43:30.531Z,80.70
2022-09-09T09:46:16.782Z,87.20
2022-09-09T09:48:44.144Z,92.40
2022-09-09T09:51:16.551Z,85.30
2022-09-09T09:53:43.751Z,82.70
2022-09-09T09:56:12.960Z,85.30
2022-09-09T09:58:52.094Z,74.20
2022-09-09T10:01:34.319Z,75.90
2022-09-09T10:04:17.231Z,68.00
2022-09-09T10:06:44.000Z,61.10
2022-09-09T10:09:29.570Z,65.40
2022-09-09T10:12:15.175Z,57.10
2022-09-09T10:15:07.262Z,45.80
2022-09-09T10:17:56.049Z,28.50
2022-09-09T10:20:46.815Z,48.40
2022-09-09T10:23:36.853Z,44.70
2022-09-09T10:26:44.336Z,9.70
2022-09-09T10:29:19.707Z,25.30
2022-09-09T10:32:04.077Z,29.50
2022-09-09T10:34:46.670Z,32.30
2022-09-09T10:37:39.955Z,17.50
2022-09-09T10:40:36.950Z,3.50
2022-09-09T10:43:41.909Z,1.00
2022-09-09T10:46:21.814Z,1.00
2022-09-09T10:49:22.033Z,1.00
2022-09-09T10:51:55.674Z,8.70
2022-09-09T10:54:54.813Z,1.00
2022-09-09T10:57:37.490Z,1.00
2022-09-09T11:00:24.699Z,1.00
2022-09-09T11:03:03.146Z,1.00
2022-09-09T11:05:32.399Z,1.00
2022-09-09T11:08:04.246Z,1.00
2022-09-09T11:10:53.550Z,1.00
2022-09-09T11:13:39.462Z,1.00
2022-09-09T11:16:37.490Z,1.00
2022-09-09T11:19:35.203Z,1.00
2022-09-09T11:22:30.583Z,1.00
2022-09-09T11:25:15.495Z,1.00
2022-09-09T11:28:16.539Z,1.00
2022-09-09T11:30:56.722Z,1.00
2022-09-09T11:33:52.784Z,1.00
2022-09-09T11:36:27.941Z,1.00
2022-09-09T11:39:19.090Z,1.00
2022-09-09T11:41:45.766Z,1.00
2022-09-09T11:44:14.872Z,1.00
2022-09-09T11:46:42.684Z,1.00
2022-09-09T11:49:48.255Z,1.00
2022-09-09T11:52:48.986Z,1.00
2022-09-09T11:55:37.910Z,1.00
2022-09-09T11:58:14.946Z,1.00
2022-09-09T12:00:47.217Z,1.00
2022-09-09T12:03:47.888Z,1.00
2022-09-09T12:06:33.093Z,1.00
2022-09-09T12:09:13.253Z,1.00
2022-09-09T12:11:40.056Z,1.00
2022-09-09T12:14:22.030Z,1.00
2022-09-09T12:16:48.760Z,1.00
2022-09-09T12:19:17.128Z,1.00
2022-09-09T12:21:57.352Z,1.00
2022-09-09T12:24:34.498Z,1.00
2022-09-09T12:27:16.485Z,1.00
2022-09-09T12:29:56.368Z,1.00
2022-09-09T12:32:27.883Z,1.00
2022-09-09T12:35:04.511Z,1.00
2022-09-09T12:37:36.377Z,1.00
2022-09-09T12:40:21.393Z,1.00
2022-09-09T12:42:48.281Z,1.00
2022-09-09T12:45:23.165Z,1.00
2022-09-09T12:47:53.684Z,1.00
2022-09-09T12:50:23.830Z,1.00
2022-09-09T12:52:54.359Z,1.00
2022-09-09T12:55:26.169Z,1.00
2022-09-09T12:57:53.530Z,1.00
2022-09-09T13:00:25.773Z,1.00
2022-09-09T13:02:55.342Z,1.00
2022-09-09T13:05:25.359Z,1.00
2022-09-09T13:07:52.609Z,1.00
2022-09-09T13:10:36.816Z,1.00
2022-09-09T13:13:04.240Z,1.00
2022-09-09T13:15:31.367Z,1.00
2022-09-09T13:18:06.336Z,1.00
2022-09-09T13:20:33.065Z,1.00
2022-09-09T13:22:59.837Z,1.00
2022-09-09T13:25:29.806Z,1.00
2022-09-09T13:28:03.464Z,1.00
2022-09-09T13:30:37.540Z,1.00
2022-09-09T13:33:24.076Z,1.00
2022-09-09T13:36:12.004Z,1.00
2022-09-09T13:39:00.742Z,1.00
2022-09-09T13:41:34.011Z,1.00
2022-09-09T13:44:01.740Z,1.00
2022-09-09T13:46:41.334Z,1.00
2022-09-09T13:49:09.841Z,1.00
2022-09-09T13:51:39.339Z,1.00
2022-09-09T13:54:07.872Z,1.00
2022-09-09T13:56:36.209Z,1.00
2022-09-09T13:59:05.246Z,1.00
2022-09-09T14:01:32.477Z,1.00
2022-09-09T14:03:59.943Z,1.00
2022-09-09T14:06:26.883Z,1.00
2022-09-09T14:08:55.741Z,1.00
2022-09-09T14:11:22.783Z,1.00
2022-09-09T14:13:52.797Z,1.00
2022-09-09T14:16:19.609Z,1.00
2022-09-09T14:18:47.431Z,1.00
2022-09-09T14:21:14.421Z,1.00
2022-09-09T14:23:41.341Z,1.00
2022-09-09T14:26:09.029Z,1.00
2022-09-09T14:28:54.305Z,1.00
2022-09-09T14:31:22.009Z,1.00
2022-09-09T14:33:48.976Z,1.00
2022-09-09T14:36:16.122Z,1.00
2022-09-09T14:38:43.772Z,1.00
2022-09-09T14:41:12.569Z,99.90
2022-09-09T14:43:40.191Z,1.00
2022-09-09T14:46:26.193Z,99.90
2022-09-09T14:51:23.898Z,99.90
2022-09-09T14:53:54.802Z,99.90
2022-09-09T14:56:25.111Z,99.90
2022-09-09T14:58:53.665Z,99.90
2022-09-09T15:01:21.624Z,99.90
2022-09-09T15:03:53.340Z,1.00
2022-09-09T15:06:21.469Z,1.00
2022-09-09T15:08:48.680Z,1.00
2022-09-09T15:11:17.155Z,1.00
2022-09-09T15:13:44.795Z,1.00
2022-09-09T15:16:14.803Z,1.00
2022-09-09T15:18:45.919Z,1.00
2022-09-09T15:21:15.145Z,1.00
2022-09-09T15:23:42.184Z,1.00
2022-09-09T15:26:10.041Z,1.00
2022-09-09T15:28:39.038Z,1.00
2022-09-09T15:31:12.950Z,1.00
2022-09-09T15:33:39.715Z,1.00
2022-09-09T15:36:18.511Z,1.00
2022-09-09T15:38:46.192Z,1.00
2022-09-09T15:41:14.500Z,1.00
2022-09-09T15:43:46.241Z,1.00
2022-09-09T15:46:28.041Z,1.00
2022-09-09T15:48:56.764Z,1.00
2022-09-09T15:51:41.732Z,1.00
2022-09-09T15:54:14.230Z,1.00
2022-09-09T15:56:41.823Z,1.00
2022-09-09T15:59:08.593Z,1.00
2022-09-09T16:01:36.553Z,1.00
2022-09-09T16:04:03.558Z,1.00
2022-09-09T16:06:30.987Z,1.00
2022-09-09T16:08:59.162Z,1.00
2022-09-09T16:11:28.254Z,1.00
2022-09-09T16:13:55.882Z,1.00
2022-09-09T16:16:28.379Z,1.00
2022-09-09T16:18:58.111Z,1.00
2022-09-09T16:21:55.901Z,1.00
2022-09-09T16:24:23.258Z,1.00
2022-09-09T16:26:53.097Z,1.00
2022-09-09T16:29:20.244Z,1.00
2022-09-09T16:31:47.885Z,1.00
2022-09-09T16:34:16.509Z,1.00
2022-09-09T16:36:44.678Z,1.00
2022-09-09T16:39:16.773Z,1.00
2022-09-09T16:41:45.654Z,1.00
2022-09-09T16:44:13.935Z,1.00
2022-09-09T16:46:42.746Z,1.00
2022-09-09T16:49:12.745Z,1.00
2022-09-09T16:51:48.950Z,1.00
2022-09-09T16:54:18.124Z,1.00
2022-09-09T16:56:47.383Z,1.00
2022-09-09T16:59:16.665Z,1.00
2022-09-09T17:01:45.521Z,1.00
2022-09-09T17:04:17.242Z,1.00
2022-09-09T17:06:50.666Z,1.00
2022-09-09T17:09:18.211Z,1.00
2022-09-09T17:11:46.323Z,1.00
2022-09-09T17:14:17.508Z,1.00
2022-09-09T17:16:44.723Z,1.00
2022-09-09T17:19:12.310Z,1.00
2022-09-09T17:21:54.660Z,1.00
2022-09-09T17:24:27.581Z,1.00
2022-09-09T17:26:55.396Z,1.00
2022-09-09T17:29:22.734Z,1.00
2022-09-09T17:31:49.486Z,1.00
2022-09-09T17:34:16.173Z,1.00
2022-09-09T17:36:43.009Z,1.00
2022-09-09T17:39:09.734Z,1.00
2022-09-09T17:41:38.779Z,1.00
2022-09-09T17:46:42.371Z,1.00
2022-09-09T17:49:12.907Z,1.00
2022-09-09T17:51:42.507Z,1.00
2022-09-09T17:54:13.230Z,1.00
2022-09-09T17:56:42.183Z,1.00
2022-09-09T17:59:10.983Z,1.00
2022-09-09T18:01:40.742Z,1.00
2022-09-09T18:04:09.661Z,1.00
2022-09-09T18:06:39.119Z,1.00
2022-09-09T18:09:09.299Z,1.00
2022-09-09T18:11:42.656Z,1.00
2022-09-09T18:14:12.665Z,1.00
2022-09-09T18:16:40.803Z,1.00
2022-09-09T18:19:12.469Z,1.00
2022-09-09T18:21:39.550Z,1.00
2022-09-09T18:24:07.501Z,1.00
2022-09-09T18:26:35.527Z,1.00
2022-09-09T18:29:12.899Z,2.70
2022-09-09T18:31:41.180Z,2.70
2022-09-09T18:34:10.218Z,6.70
2022-09-09T18:36:44.441Z,8.40
2022-09-09T18:39:13.599Z,11.80
2022-09-09T18:41:52.589Z,13.70
2022-09-09T18:44:24.770Z,17.00
2022-09-09T18:46:52.590Z,18.20
2022-09-09T18:49:21.780Z,21.30
2022-09-09T18:51:49.109Z,21.80
2022-09-09T18:54:34.379Z,24.30
2022-09-09T18:57:01.607Z,26.30
2022-09-09T18:59:29.805Z,28.60
2022-09-09T19:01:57.194Z,31.10
2022-09-09T19:04:25.397Z,32.10
2022-09-09T19:06:58.183Z,35.00
2022-09-09T19:09:28.466Z,35.20
2022-09-09T19:11:55.476Z,38.10
2022-09-09T19:14:22.345Z,38.70
2022-09-09T19:16:49.106Z,39.70
2022-09-09T19:19:18.745Z,42.30
2022-09-09T19:21:45.604Z,41.60
2022-09-09T19:24:19.717Z,44.20
2022-09-09T19:26:49.488Z,47.20
2022-09-09T19:29:25.973Z,48.60
2022-09-09T19:32:29.707Z,50.00
2022-09-09T19:34:41.865Z,53.00
2022-09-09T19:37:08.551Z,53.80
2022-09-09T19:39:35.359Z,56.70
2022-09-09T19:42:02.244Z,58.20
2022-09-09T19:44:29.820Z,59.90
2022-09-09T19:46:56.600Z,65.20
2022-09-09T19:49:23.411Z,63.60
2022-09-09T19:51:50.223Z,68.80
2022-09-09T19:54:16.981Z,69.10
2022-09-09T19:56:44.590Z,71.40
2022-09-09T19:59:12.769Z,72.70
2022-09-09T20:01:44.646Z,75.80
2022-09-09T20:04:13.813Z,78.40
2022-09-09T20:06:44.030Z,78.80
2022-09-09T20:09:18.167Z,78.60
2022-09-09T20:11:46.337Z,80.10
2022-09-09T20:14:13.185Z,79.80
2022-09-09T20:16:40.626Z,80.80
2022-09-09T20:19:11.134Z,80.00
2022-09-09T20:21:46.545Z,80.00
2022-09-09T20:24:15.453Z,79.00
2022-09-09T20:26:42.217Z,81.30
2022-09-09T20:29:16.035Z,78.30
2022-09-09T20:31:44.044Z,78.10
2022-09-09T20:34:12.929Z,76.60
2022-09-09T20:36:41.343Z,76.50
2022-09-09T20:39:15.106Z,76.10
2022-09-09T20:41:44.356Z,74.00
2022-09-09T20:44:14.618Z,74.00
2022-09-09T20:46:49.557Z,74.00
2022-09-09T20:49:18.937Z,71.50
2022-09-09T20:51:50.422Z,74.30
2022-09-09T20:54:23.551Z,73.80
2022-09-09T20:56:51.614Z,73.90
2022-09-09T20:59:30.716Z,70.80
2022-09-09T21:01:58.022Z,94.20
2022-09-09T21:04:28.433Z,99.90
2022-09-09T21:06:55.180Z,93.60
2022-09-09T21:09:26.367Z,94.50
2022-09-09T21:11:53.751Z,98.70
2022-09-09T21:14:20.862Z,99.90
2022-09-09T21:16:51.327Z,99.90
2022-09-09T21:19:18.053Z,99.90
2022-09-09T21:21:46.645Z,99.90
2022-09-09T21:24:13.894Z,99.90
2022-09-09T21:26:40.597Z,99.90
2022-09-09T21:29:07.469Z,99.90
2022-09-09T21:31:36.180Z,99.90
2022-09-09T21:34:03.448Z,99.90
2022-09-09T21:36:30.340Z,99.90
2022-09-09T21:38:59.228Z,99.90
2022-09-09T21:41:29.203Z,99.90
2022-09-09T21:43:56.485Z,99.90
2022-09-09T21:46:26.580Z,99.90
2022-09-09T21:48:56.082Z,99.90
2022-09-09T21:51:22.877Z,99.90
2022-09-09T21:53:49.563Z,99.90
2022-09-09T21:56:18.916Z,99.90
2022-09-09T21:58:47.417Z,99.90
2022-09-09T22:01:18.453Z,99.90
2022-09-09T22:03:45.987Z,99.90
2022-09-09T22:06:14.930Z,99.90
2022-09-09T22:08:42.750Z,99.90
2022-09-09T22:11:15.130Z,99.90
2022-09-09T22:13:42.797Z,99.90
2022-09-09T22:16:13.771Z,99.90
2022-09-09T22:18:41.680Z,99.90
2022-09-09T22:21:18.536Z,99.90
2022-09-09T22:23:50.695Z,99.90
2022-09-09T22:26:17.504Z,99.90
2022-09-09T22:28:44.201Z,99.90
2022-09-09T22:31:10.914Z,99.90
2022-09-09T22:33:40.787Z,99.90
2022-09-09T22:36:07.746Z,99.90
2022-09-09T22:38:36.415Z,99.90
2022-09-09T22:41:04.265Z,99.90
2022-09-09T22:43:33.040Z,99.90
2022-09-09T22:46:01.225Z,99.90
2022-09-09T22:48:31.947Z,99.90
2022-09-09T22:51:06.135Z,99.90
2022-09-09T22:53:34.124Z,99.90
2022-09-09T22:56:03.302Z,99.90
2022-09-09T22:58:32.803Z,99.90
2022-09-09T23:01:00.316Z,99.90
2022-09-09T23:03:31.212Z,99.90
2022-09-09T23:06:01.123Z,99.90
2022-09-09T23:08:33.978Z,99.90
2022-09-09T23:11:04.314Z,99.90
2022-09-09T23:13:31.057Z,99.90
2022-09-09T23:15:57.787Z,99.90
2022-09-09T23:18:26.753Z,99.90
2022-09-09T23:21:00.446Z,99.90
2022-09-09T23:23:28.429Z,99.90
2022-09-09T23:25:55.453Z,99.90
2022-09-09T23:28:22.249Z,99.90
2022-09-09T23:30:48.986Z,99.90
2022-09-09T23:33:15.720Z,99.90
2022-09-09T23:35:42.479Z,99.90
2022-09-09T23:38:10.432Z,99.90
2022-09-09T23:40:37.357Z,99.90
2022-09-09T23:43:05.118Z,99.90
2022-09-09T23:45:32.150Z,99.90
2022-09-09T23:47:58.833Z,99.90
2022-09-09T23:50:25.566Z,99.90
2022-09-09T23:52:52.332Z,99.90
2022-09-09T23:55:19.067Z,99.90
2022-09-09T23:57:45.727Z,99.90
